Time;durP1;ratioP1;P1;durP2;ratioP2;P2;SDS_P1;SDS_P2;PMS_P1;PMS_P2;Temp;Humidity;BMP_temperature;BMP_pressure;BME280_temperature;BME280_humidity;BME280_pressure;Samples;Min_cycle;Max_cycle;Signal;HPM_P1;HPM_P2
2022/06/16 00:02:03;;;;;;;54.83;51.67;;;16.70;99.90;;;;;;4997370;28;20653;-78
2022/06/16 00:04:28;;;;;;;87.63;82.90;;;16.60;99.90;;;;;;4997375;28;20635;-79
2022/06/16 00:06:55;;;;;;;142.70;135.07;;;16.60;99.90;;;;;;5001149;28;20211;-79
2022/06/16 00:09:23;;;;;;;115.87;109.97;;;16.70;99.90;;;;;;5007867;28;20200;-78
2022/06/16 00:11:49;;;;;;;134.47;127.47;;;16.70;99.90;;;;;;5007963;28;20196;-78
2022/06/16 00:14:15;;;;;;;145.73;138.20;;;16.70;99.90;;;;;;5009591;28;20188;-78
2022/06/16 00:16:41;;;;;;;141.50;134.00;;;16.70;99.90;;;;;;5005212;28;20279;-79
2022/06/16 00:19:07;;;;;;;122.47;116.10;;;16.70;99.90;;;;;;5003983;28;20248;-78
2022/06/16 00:21:33;;;;;;;100.87;95.70;;;16.60;99.90;;;;;;5005419;28;20188;-79
2022/06/16 00:23:59;;;;;;;70.77;67.03;;;16.50;99.90;;;;;;5005193;28;20212;-78
2022/06/16 00:26:26;;;;;;;98.47;93.33;;;16.50;99.90;;;;;;5002299;28;20584;-79
2022/06/16 00:28:52;;;;;;;95.80;90.73;;;16.50;99.90;;;;;;5003122;28;20197;-78
2022/06/16 00:31:21;;;;;;;74.77;70.87;;;16.60;99.90;;;;;;5006573;28;20212;-78
2022/06/16 00:33:47;;;;;;;47.07;44.50;;;16.60;99.90;;;;;;5006091;28;20271;-79
2022/06/16 00:36:14;;;;;;;50.33;47.33;;;16.60;99.90;;;;;;5004723;28;20332;-77
2022/06/16 00:38:40;;;;;;;49.73;47.00;;;16.50;99.90;;;;;;5006965;28;20224;-77
2022/06/16 00:41:08;;;;;;;53.43;50.70;;;16.60;99.90;;;;;;5009439;28;20227;-78
2022/06/16 00:43:34;;;;;;;46.90;44.50;;;16.50;99.90;;;;;;5003943;28;20239;-78
2022/06/16 00:46:06;;;;;;;31.97;29.93;;;16.50;99.90;;;;;;5003746;28;20552;-78
2022/06/16 00:48:51;;;;;;;45.43;43.13;;;16.40;99.90;;;;;;5003308;28;20767;-79
2022/06/16 00:51:29;;;;;;;45.63;43.00;;;16.40;99.90;;;;;;5004684;28;20193;-80
2022/06/16 00:54:00;;;;;;;37.57;35.37;;;16.40;99.90;;;;;;5002776;28;20203;-79
2022/06/16 00:56:26;;;;;;;26.07;24.53;;;16.30;99.90;;;;;;5002487;28;20192;-77
2022/06/16 00:59:01;;;;;;;23.33;21.97;;;16.30;99.90;;;;;;4983318;28;20205;-79
2022/06/16 01:01:27;;;;;;;29.77;28.10;;;16.30;99.90;;;;;;4983244;28;20660;-79
2022/06/16 01:06:38;;;;;;;18.67;17.47;;;16.30;99.90;;;;;;4984135;28;20185;-78
2022/06/16 01:09:11;;;;;;;21.80;20.40;;;16.30;99.90;;;;;;4982457;28;20196;-79
2022/06/16 01:15:23;;;;;;;23.77;22.10;;;16.30;99.90;;;;;;5004070;28;20211;-78
2022/06/16 01:17:58;;;;;;;16.20;15.30;;;16.20;99.90;;;;;;5005561;28;20188;-77
2022/06/16 01:20:36;;;;;;;19.40;18.23;;;16.20;99.90;;;;;;5008847;28;20202;-77
2022/06/16 01:23:21;;;;;;;22.33;20.93;;;16.10;99.90;;;;;;5005191;28;20676;-78
2022/06/16 01:26:15;;;;;;;14.53;13.37;;;16.20;99.90;;;;;;5002578;28;20180;-78
2022/06/16 01:28:59;;;;;;;27.67;25.83;;;16.20;99.90;;;;;;5001871;28;20258;-77
2022/06/16 01:31:32;;;;;;;46.00;43.53;;;16.20;99.90;;;;;;5002772;28;20276;-78
2022/06/16 01:34:26;;;;;;;36.43;34.47;;;16.10;99.90;;;;;;5002167;28;20251;-78
2022/06/16 01:37:10;;;;;;;48.13;45.10;;;16.00;99.90;;;;;;4999930;28;20283;-78
2022/06/16 01:39:54;;;;;;;51.27;48.27;;;16.00;99.90;;;;;;5001827;28;20222;-78
2022/06/16 01:42:45;;;;;;;41.83;39.57;;;16.00;99.90;;;;;;5007653;28;20190;-79
2022/06/16 01:45:28;;;;;;;48.27;45.63;;;15.90;99.90;;;;;;5003090;28;20184;-79
2022/06/16 01:47:56;;;;;;;66.20;62.40;;;15.80;99.90;;;;;;5002301;28;20653;-79
2022/06/16 01:50:33;;;;;;;85.00;80.50;;;15.70;99.90;;;;;;5002872;28;20209;-79
2022/06/16 01:53:05;;;;;;;103.83;98.43;;;15.80;99.90;;;;;;5000976;28;20188;-78
2022/06/16 01:55:36;;;;;;;112.47;106.53;;;15.80;99.90;;;;;;5007522;28;20189;-78
2022/06/16 01:58:08;;;;;;;134.73;127.47;;;15.80;99.90;;;;;;5004735;28;20203;-79
2022/06/16 02:00:35;;;;;;;78.90;74.47;;;15.70;99.90;;;;;;5003179;28;20193;-79
2022/06/16 02:03:10;;;;;;;117.53;111.10;;;15.70;99.90;;;;;;5002890;28;20208;-79
2022/06/16 02:05:58;;;;;;;52.73;49.93;;;15.70;99.90;;;;;;5002161;28;20322;-79
2022/06/16 02:08:33;;;;;;;96.37;91.33;;;15.50;99.90;;;;;;5001510;28;20211;-78
2022/06/16 02:11:07;;;;;;;111.63;105.53;;;15.40;99.90;;;;;;5000584;28;20220;-79
2022/06/16 02:13:39;;;;;;;123.90;117.50;;;15.40;99.90;;;;;;4999437;28;20191;-79
2022/06/16 02:16:16;;;;;;;87.87;83.30;;;15.30;99.90;;;;;;5000677;28;20192;-78
2022/06/16 02:18:44;;;;;;;72.73;68.83;;;15.20;99.90;;;;;;4999328;28;20291;-79
2022/06/16 02:21:43;;;;;;;76.67;72.60;;;15.20;99.90;;;;;;5003996;28;20274;-78
2022/06/16 02:24:14;;;;;;;57.90;54.60;;;15.10;99.90;;;;;;5005249;28;20216;-79
2022/06/16 02:26:42;;;;;;;52.67;49.70;;;15.00;99.90;;;;;;5002600;28;20180;-78
2022/06/16 02:29:33;;;;;;;46.63;44.13;;;15.00;99.90;;;;;;4999442;28;20204;-79
2022/06/16 02:32:02;;;;;;;34.17;32.23;;;14.90;99.90;;;;;;5001185;28;20177;-81
2022/06/16 02:34:47;;;;;;;33.50;31.57;;;14.90;99.90;;;;;;5000017;28;20193;-78
2022/06/16 02:37:16;;;;;;;52.50;49.57;;;14.90;99.90;;;;;;4999733;28;20671;-79
2022/06/16 02:40:04;;;;;;;44.77;42.07;;;14.90;99.90;;;;;;4999483;28;20219;-79
2022/06/16 02:42:53;;;;;;;20.33;18.83;;;15.00;99.90;;;;;;5000198;28;20199;-78
2022/06/16 02:45:28;;;;;;;29.83;28.10;;;15.00;99.90;;;;;;4998820;28;20234;-79
2022/06/16 02:48:04;;;;;;;27.20;25.60;;;15.00;99.90;;;;;;4998570;28;20226;-79
2022/06/16 02:50:30;;;;;;;25.13;23.70;;;14.90;99.90;;;;;;4999997;28;20220;-79
2022/06/16 02:53:09;;;;;;;26.33;24.83;;;14.80;99.90;;;;;;4999518;28;20195;-78
2022/06/16 02:55:49;;;;;;;21.87;20.53;;;14.60;99.90;;;;;;5000339;28;20188;-78
2022/06/16 02:58:19;;;;;;;27.73;26.03;;;14.70;99.90;;;;;;4998629;28;20183;-78
2022/06/16 03:00:50;;;;;;;37.80;35.23;;;14.70;99.90;;;;;;4997970;28;20181;-78
2022/06/16 03:03:21;;;;;;;42.87;39.57;;;14.80;99.90;;;;;;4993031;28;20247;-75
2022/06/16 03:05:53;;;;;;;36.87;34.70;;;14.80;99.90;;;;;;4992889;28;20184;-75
2022/06/16 03:08:22;;;;;;;30.90;29.10;;;14.80;99.90;;;;;;4992919;28;20208;-74
2022/06/16 03:10:51;;;;;;;40.10;37.70;;;14.70;99.90;;;;;;4991758;28;20180;-75
2022/06/16 03:13:20;;;;;;;39.87;37.73;;;14.70;99.90;;;;;;4992439;28;20192;-74
2022/06/16 03:15:47;;;;;;;43.93;41.40;;;14.80;99.90;;;;;;4988338;28;20188;-73
2022/06/16 03:18:13;;;;;;;23.27;21.87;;;14.80;99.90;;;;;;4989594;28;20188;-73
2022/06/16 03:20:39;;;;;;;33.33;31.33;;;14.70;99.90;;;;;;4993229;28;20195;-73
2022/06/16 03:23:04;;;;;;;43.60;41.20;;;14.50;99.90;;;;;;4995571;28;20215;-73
2022/06/16 03:25:30;;;;;;;16.30;15.17;;;14.50;99.90;;;;;;4993711;28;20230;-73
2022/06/16 03:27:57;;;;;;;19.27;17.93;;;14.50;99.90;;;;;;4992683;28;20184;-75
2022/06/16 03:30:23;;;;;;;14.23;13.23;;;14.50;99.90;;;;;;4992822;28;20196;-73
2022/06/16 03:32:49;;;;;;;30.30;28.30;;;14.60;99.90;;;;;;4991940;28;20275;-73
2022/06/16 03:35:14;;;;;;;18.63;17.23;;;14.50;99.90;;;;;;4992060;28;20559;-74
2022/06/16 03:37:41;;;;;;;14.17;13.20;;;14.40;99.90;;;;;;4989533;28;20248;-73
2022/06/16 03:40:08;;;;;;;15.83;14.87;;;14.40;99.90;;;;;;4991547;28;20212;-73
2022/06/16 03:42:34;;;;;;;14.23;13.10;;;14.60;99.90;;;;;;4991294;28;20230;-73
2022/06/16 03:45:00;;;;;;;14.53;13.03;;;14.70;99.90;;;;;;4990283;28;20590;-73
2022/06/16 03:47:26;;;;;;;20.00;18.53;;;14.70;99.90;;;;;;4990647;28;20192;-74
2022/06/16 03:49:53;;;;;;;90.93;86.17;;;14.80;99.90;;;;;;4991471;28;20208;-73
2022/06/16 03:52:19;;;;;;;145.63;138.23;;;14.90;99.90;;;;;;4989988;28;20192;-73
2022/06/16 03:54:45;;;;;;;144.27;136.80;;;14.90;99.90;;;;;;4991223;28;20314;-72
2022/06/16 03:57:11;;;;;;;160.07;151.90;;;15.00;99.90;;;;;;4990318;28;20194;-73
2022/06/16 03:59:37;;;;;;;164.13;155.63;;;15.10;99.90;;;;;;4991210;28;20204;-76
2022/06/16 04:02:03;;;;;;;203.30;193.13;;;15.20;99.90;;;;;;4990128;28;20184;-74
2022/06/16 04:04:29;;;;;;;208.00;197.17;;;15.20;99.90;;;;;;4991106;28;20278;-73
2022/06/16 04:06:55;;;;;;;200.67;190.47;;;15.30;99.90;;;;;;4989267;28;20461;-74
2022/06/16 04:09:21;;;;;;;148.97;141.20;;;15.40;99.90;;;;;;4990955;28;20196;-74
2022/06/16 04:11:46;;;;;;;55.60;52.57;;;15.50;99.90;;;;;;4991123;28;20187;-74
2022/06/16 04:14:14;;;;;;;38.00;35.87;;;15.50;99.90;;;;;;4991341;28;20793;-74
2022/06/16 04:16:43;;;;;;;20.73;19.43;;;15.60;99.90;;;;;;4991255;28;20362;-74
2022/06/16 04:19:12;;;;;;;10.40;9.40;;;15.70;99.90;;;;;;4990150;28;20589;-75
2022/06/16 04:21:40;;;;;;;9.30;8.60;;;15.80;99.90;;;;;;4990751;28;20268;-74
2022/06/16 04:24:06;;;;;;;8.33;7.63;;;16.00;99.90;;;;;;4990034;28;20259;-74
2022/06/16 04:26:37;;;;;;;8.33;7.70;;;16.10;99.90;;;;;;4990495;28;20238;-74
2022/06/16 04:29:08;;;;;;;10.50;9.83;;;16.30;99.90;;;;;;4989913;28;20224;-74
2022/06/16 04:31:34;;;;;;;14.60;13.63;;;16.50;99.90;;;;;;4988583;28;20180;-74
2022/06/16 04:34:00;;;;;;;14.23;13.13;;;16.70;99.90;;;;;;4990777;28;20271;-74
2022/06/16 04:36:27;;;;;;;11.20;10.50;;;16.80;99.90;;;;;;4990461;28;20272;-74
2022/06/16 04:38:54;;;;;;;16.37;15.17;;;17.10;99.90;;;;;;5011117;23;20216;-70
2022/06/16 04:41:21;;;;;;;18.97;17.70;;;17.20;99.90;;;;;;4990239;28;20184;-70
2022/06/16 04:43:47;;;;;;;15.20;14.10;;;17.30;99.90;;;;;;4990760;28;20216;-71
2022/06/16 04:46:18;;;;;;;24.23;22.73;;;17.30;99.90;;;;;;4988585;28;20180;-70
2022/06/16 04:48:44;;;;;;;42.47;40.17;;;17.40;99.90;;;;;;4989083;28;20184;-73
2022/06/16 04:51:12;;;;;;;31.57;29.77;;;17.60;99.90;;;;;;4991875;28;20279;-70
2022/06/16 04:53:38;;;;;;;21.63;20.17;;;17.70;99.90;;;;;;4993541;28;20180;-69
2022/06/16 04:56:05;;;;;;;11.50;10.63;;;17.80;99.90;;;;;;4993588;28;20556;-70
2022/06/16 04:58:31;;;;;;;10.23;9.33;;;17.80;99.90;;;;;;4993443;28;20827;-70
2022/06/16 05:00:57;;;;;;;9.17;8.57;;;17.80;99.90;;;;;;4993297;28;20287;-70
2022/06/16 05:03:28;;;;;;;9.30;8.60;;;17.80;99.90;;;;;;4994153;28;20350;-70
2022/06/16 05:05:56;;;;;;;9.63;8.87;;;17.80;99.90;;;;;;4994166;28;20184;-70
2022/06/16 05:08:23;;;;;;;7.43;6.83;;;17.90;99.90;;;;;;4992772;28;20267;-69
2022/06/16 05:10:50;;;;;;;8.37;7.73;;;18.00;99.90;;;;;;4993929;28;20211;-70
2022/06/16 05:13:17;;;;;;;8.77;8.07;;;18.00;99.90;;;;;;4994034;28;20610;-70
2022/06/16 05:15:44;;;;;;;8.97;8.43;;;18.00;99.90;;;;;;4993068;28;20188;-70
2022/06/16 05:18:12;;;;;;;7.67;7.07;;;18.20;99.90;;;;;;4993238;28;20235;-70
2022/06/16 05:20:41;;;;;;;8.65;7.90;;;18.70;99.90;;;;;;4992856;28;20204;-70
2022/06/16 05:23:08;;;;;;;12.35;11.57;;;19.40;99.90;;;;;;4993003;28;20561;-69
2022/06/16 05:25:34;;;;;;;47.22;44.70;;;19.90;99.90;;;;;;4993949;28;20657;-71
2022/06/16 05:28:00;;;;;;;47.70;45.13;;;20.00;99.90;;;;;;4993024;28;20190;-70
2022/06/16 05:30:25;;;;;;;20.63;19.48;;;20.20;99.90;;;;;;4993250;28;20343;-70
2022/06/16 05:32:51;;;;;;;11.82;10.98;;;20.80;99.90;;;;;;4993697;28;20203;-70
2022/06/16 05:35:17;;;;;;;10.65;9.93;;;21.50;99.90;;;;;;4992720;28;20184;-69
2022/06/16 05:37:43;;;;;;;17.58;16.27;;;22.00;99.90;;;;;;4991173;28;20239;-70
2022/06/16 05:40:09;;;;;;;18.92;17.83;;;22.30;99.90;;;;;;4994940;28;20211;-69
2022/06/16 05:42:34;;;;;;;21.25;20.05;;;22.40;99.90;;;;;;4993320;28;20730;-69
2022/06/16 05:45:00;;;;;;;17.58;16.33;;;22.40;99.90;;;;;;4993652;28;20185;-69
2022/06/16 05:47:26;;;;;;;30.80;29.08;;;22.40;99.90;;;;;;4992917;28;20187;-69
2022/06/16 05:49:52;;;;;;;26.45;24.80;;;22.80;99.90;;;;;;4993696;28;20208;-69
2022/06/16 05:52:21;;;;;;;16.40;15.30;;;23.50;99.90;;;;;;4992580;28;20649;-71
2022/06/16 05:54:47;;;;;;;19.45;17.98;;;23.90;99.90;;;;;;4993654;28;20267;-70
2022/06/16 05:57:13;;;;;;;13.02;12.15;;;24.20;99.90;;;;;;4992141;28;20271;-70
2022/06/16 05:59:40;;;;;;;11.23;10.27;;;24.70;99.90;;;;;;4992476;28;20232;-70
2022/06/16 06:02:12;;;;;;;9.88;8.93;;;24.90;99.90;;;;;;4991927;28;20258;-70
2022/06/16 06:04:38;;;;;;;12.63;11.90;;;25.40;99.90;;;;;;5007966;28;20219;-70
2022/06/16 06:07:04;;;;;;;10.57;10.07;;;25.80;99.90;;;;;;5004225;28;20555;-70
2022/06/16 06:18:20;;;;;;;18.00;17.00;;;26.70;98.90;;;;;;4970153;28;20574;-69
2022/06/16 06:20:46;;;;;;;12.30;11.60;;;26.90;98.60;;;;;;4976587;28;20197;-71
2022/06/16 06:23:12;;;;;;;10.93;10.32;;;26.50;98.20;;;;;;4984019;28;20303;-69
2022/06/16 06:25:39;;;;;;;31.10;29.20;;;26.10;98.90;;;;;;4993105;28;20251;-69
2022/06/16 06:28:06;;;;;;;43.10;40.60;;;25.70;99.20;;;;;;4992208;28;20556;-69
2022/06/16 06:30:33;;;;;;;46.40;43.53;;;25.40;99.40;;;;;;4992209;28;20649;-69
2022/06/16 06:33:00;;;;;;;54.85;51.65;;;25.20;99.70;;;;;;4992325;28;20267;-68
2022/06/16 06:35:26;;;;;;;73.75;69.97;;;25.00;99.70;;;;;;4992657;28;20263;-71
2022/06/16 06:37:52;;;;;;;31.55;29.60;;;24.60;99.90;;;;;;4990895;28;20279;-68
2022/06/16 06:40:28;;;;;;;18.40;16.75;;;24.30;99.90;;;;;;4990830;28;20216;-69
2022/06/16 06:42:55;;;;;;;18.30;17.13;;;24.70;99.90;;;;;;4991227;28;20235;-68
2022/06/16 06:45:21;;;;;;;39.42;37.28;;;25.30;99.90;;;;;;4990011;28;20207;-68
2022/06/16 06:47:48;;;;;;;20.35;19.15;;;26.20;99.70;;;;;;4990588;28;20180;-69
2022/06/16 06:50:27;;;;;;;9.85;9.20;;;26.70;98.10;;;;;;4991679;28;20203;-68
2022/06/16 06:52:54;;;;;;;8.88;8.27;;;27.00;95.40;;;;;;4990384;28;20194;-69
2022/06/16 06:55:21;;;;;;;7.45;6.85;;;27.40;95.80;;;;;;4991487;28;20176;-68
2022/06/16 06:57:48;;;;;;;7.75;7.18;;;27.70;94.30;;;;;;4990466;28;20192;-68
2022/06/16 07:00:16;;;;;;;7.55;6.95;;;28.00;92.50;;;;;;4990687;28;20200;-68
2022/06/16 07:02:42;;;;;;;5.75;5.32;;;28.70;91.50;;;;;;4990791;28;20181;-69
2022/06/16 07:05:09;;;;;;;7.72;6.97;;;29.10;89.30;;;;;;4980900;28;20207;-69
2022/06/16 07:07:36;;;;;;;10.73;9.93;;;29.60;87.40;;;;;;4989608;28;20653;-69
2022/06/16 07:10:03;;;;;;;20.52;19.40;;;29.70;84.40;;;;;;4991134;28;20235;-69
2022/06/16 07:12:29;;;;;;;12.70;11.90;;;29.30;83.30;;;;;;4991074;28;20187;-69
2022/06/16 07:14:55;;;;;;;10.63;10.00;;;28.60;86.40;;;;;;4989960;28;20575;-69
2022/06/16 07:17:23;;;;;;;9.32;8.73;;;28.00;86.30;;;;;;4990322;28;20210;-69
2022/06/16 07:19:49;;;;;;;7.53;7.13;;;27.70;86.70;;;;;;4989824;28;20572;-69
2022/06/16 07:22:16;;;;;;;8.57;7.72;;;28.00;89.00;;;;;;4990372;28;20191;-69
2022/06/16 07:24:41;;;;;;;13.00;12.20;;;29.00;85.20;;;;;;4990440;28;20258;-70
2022/06/16 07:27:08;;;;;;;20.42;19.33;;;29.80;84.30;;;;;;4990601;28;20188;-70
2022/06/16 07:29:34;;;;;;;18.38;17.38;;;30.00;81.90;;;;;;4989649;28;20301;-70
2022/06/16 07:32:00;;;;;;;14.10;13.00;;;30.50;77.20;;;;;;4989682;28;20203;-69
2022/06/16 07:34:26;;;;;;;16.08;14.98;;;30.60;77.60;;;;;;4989024;28;20189;-69
2022/06/16 07:36:52;;;;;;;13.57;12.50;;;30.60;77.80;;;;;;4989276;28;20269;-69
2022/06/16 07:39:19;;;;;;;10.82;10.02;;;30.10;76.80;;;;;;4952178;28;1113590;-69
2022/06/16 07:41:44;;;;;;;12.52;11.65;;;29.60;79.20;;;;;;4991816;28;20185;-69
2022/06/16 07:44:14;;;;;;;12.02;11.10;;;29.10;81.00;;;;;;4991481;28;20208;-69
2022/06/16 07:46:42;;;;;;;10.90;10.10;;;28.50;82.50;;;;;;4991590;28;20184;-69
2022/06/16 07:49:12;;;;;;;13.43;12.68;;;28.40;83.20;;;;;;4991311;28;20478;-69
2022/06/16 07:51:38;;;;;;;18.83;17.38;;;27.70;80.80;;;;;;4997460;28;20181;-69
2022/06/16 07:54:04;;;;;;;8.55;8.05;;;27.20;80.70;;;;;;5001157;28;20176;-69
2022/06/16 07:56:30;;;;;;;9.82;9.02;;;27.40;83.00;;;;;;4991862;28;20180;-71
2022/06/16 07:58:55;;;;;;;9.48;8.85;;;27.90;81.00;;;;;;4990788;28;20184;-70
2022/06/16 08:01:21;;;;;;;10.80;10.00;;;28.30;79.70;;;;;;4991673;28;20191;-70
2022/06/16 08:03:47;;;;;;;10.75;9.95;;;28.60;79.50;;;;;;4991489;28;20704;-69
2022/06/16 08:06:17;;;;;;;10.90;10.30;;;29.20;79.50;;;;;;4991527;28;20199;-69
2022/06/16 08:08:43;;;;;;;15.70;14.60;;;30.10;79.00;;;;;;4990587;28;20238;-70
2022/06/16 08:13:56;;;;;;;21.77;20.48;;;31.40;68.80;;;;;;5003386;28;20208;-70
2022/06/16 08:16:22;;;;;;;30.83;28.92;;;30.90;70.40;;;;;;5007847;28;20276;-71
2022/06/16 08:18:48;;;;;;;34.42;32.03;;;31.30;69.90;;;;;;4991749;28;20180;-70
2022/06/16 08:21:13;;;;;;;73.15;69.40;;;31.40;70.70;;;;;;4991556;28;20669;-69
2022/06/16 08:23:39;;;;;;;69.00;65.35;;;31.90;68.00;;;;;;4981113;28;20772;-70
2022/06/16 08:26:05;;;;;;;98.00;93.20;;;31.70;65.20;;;;;;4991762;28;20601;-69
2022/06/16 08:28:33;;;;;;;82.30;78.10;;;31.20;66.20;;;;;;4994159;28;20181;-69
2022/06/16 08:31:01;;;;;;;64.05;60.85;;;30.40;65.40;;;;;;4994180;28;20238;-70
2022/06/16 08:33:27;;;;;;;32.50;30.38;;;30.10;70.10;;;;;;4994562;28;20234;-70
2022/06/16 08:35:53;;;;;;;16.30;15.38;;;29.90;69.30;;;;;;4994950;28;20609;-69
2022/06/16 08:38:19;;;;;;;12.77;11.68;;;29.40;71.20;;;;;;4993174;28;20192;-70
2022/06/16 08:40:48;;;;;;;14.43;13.32;;;29.80;72.30;;;;;;4994650;28;20274;-70
2022/06/16 08:43:25;;;;;;;14.32;13.40;;;30.00;71.40;;;;;;4994458;28;20761;-70
2022/06/16 08:46:01;;;;;;;14.02;12.85;;;30.30;69.70;;;;;;4992988;28;20181;-70
2022/06/16 08:48:47;;;;;;;17.00;16.08;;;30.40;69.70;;;;;;4993815;28;20180;-70
2022/06/16 08:51:41;;;;;;;15.32;14.32;;;30.50;69.70;;;;;;4994660;28;20250;-70
2022/06/16 08:54:35;;;;;;;19.73;18.48;;;30.50;70.70;;;;;;4993466;28;20271;-70
2022/06/16 08:57:33;;;;;;;17.23;15.93;;;30.60;69.40;;;;;;4993738;28;20195;-72
2022/06/16 09:00:07;;;;;;;17.58;16.10;;;30.70;69.90;;;;;;4984363;28;20212;-69
2022/06/16 09:03:04;;;;;;;20.98;19.88;;;30.80;69.20;;;;;;4993119;28;20191;-68
2022/06/16 09:05:54;;;;;;;20.95;18.95;;;30.90;67.70;;;;;;4975163;28;20181;-68
2022/06/16 09:08:41;;;;;;;17.42;16.33;;;30.80;68.80;;;;;;4973905;28;20213;-69
2022/06/16 09:11:34;;;;;;;26.48;24.67;;;31.00;68.70;;;;;;4978615;28;20191;-68
2022/06/16 09:14:16;;;;;;;48.70;45.92;;;31.20;66.00;;;;;;4992718;28;20207;-69
2022/06/16 09:16:56;;;;;;;61.42;58.00;;;31.60;63.50;;;;;;4994206;28;20219;-69
2022/06/16 09:19:37;;;;;;;41.65;39.45;;;30.70;63.10;;;;;;4993999;28;20270;-69
2022/06/16 09:22:21;;;;;;;45.25;42.50;;;30.80;65.30;;;;;;4993263;28;20682;-69
2022/06/16 09:25:05;;;;;;;37.13;34.72;;;31.10;64.10;;;;;;4994215;28;20218;-84
2022/06/16 09:27:41;;;;;;;43.88;41.30;;;31.10;62.00;;;;;;4992062;28;20263;-73
2022/06/16 09:30:20;;;;;;;42.10;38.75;;;31.10;62.90;;;;;;4993536;28;20206;-75
2022/06/16 09:32:52;;;;;;;48.53;45.72;;;31.40;63.70;;;;;;4994550;28;20215;-74
2022/06/16 09:35:33;;;;;;;60.65;57.58;;;31.90;62.00;;;;;;4992260;28;20553;-75
2022/06/16 09:38:08;;;;;;;61.05;57.97;;;31.90;61.70;;;;;;4992804;28;20219;-75
2022/06/16 09:40:49;;;;;;;62.22;58.97;;;31.90;62.60;;;;;;4993927;28;20211;-73
2022/06/16 09:43:26;;;;;;;47.00;43.95;;;31.70;62.90;;;;;;4993201;28;20680;-75
2022/06/16 09:45:57;;;;;;;61.20;58.17;;;31.60;65.30;;;;;;4992473;28;20194;-74
2022/06/16 09:48:30;;;;;;;64.72;61.03;;;32.10;62.70;;;;;;4993184;28;20187;-73
2022/06/16 09:51:14;;;;;;;43.13;40.78;;;31.90;61.60;;;;;;4993445;28;20200;-74
2022/06/16 09:54:00;;;;;;;42.55;40.08;;;32.10;62.20;;;;;;4993461;28;20748;-72
2022/06/16 09:56:40;;;;;;;35.72;33.55;;;31.80;59.90;;;;;;4993553;28;20216;-73
2022/06/16 09:59:13;;;;;;;32.40;30.38;;;31.70;59.30;;;;;;4990690;28;20212;-74
2022/06/16 10:01:50;;;;;;;30.55;28.80;;;31.80;59.90;;;;;;4993474;28;20199;-73
2022/06/16 10:04:16;;;;;;;25.55;23.88;;;32.10;59.30;;;;;;4992745;28;20306;-73
2022/06/16 10:07:04;;;;;;;23.60;22.30;;;32.40;57.90;;;;;;4992358;28;20188;-72
2022/06/16 10:09:36;;;;;;;27.58;25.98;;;32.10;58.40;;;;;;4992968;28;20247;-73
2022/06/16 10:12:10;;;;;;;20.17;18.65;;;32.00;59.00;;;;;;4993261;28;20216;-72
2022/06/16 10:14:48;;;;;;;25.90;23.67;;;32.00;58.60;;;;;;4992321;28;20589;-73
2022/06/16 10:17:17;;;;;;;30.75;28.50;;;31.80;59.30;;;;;;4992815;28;20189;-72
2022/06/16 10:19:45;;;;;;;29.83;27.95;;;31.50;60.40;;;;;;4996131;28;20227;-74
2022/06/16 10:22:17;;;;;;;32.58;30.15;;;31.40;60.90;;;;;;5006963;28;20200;-73
2022/06/16 10:24:54;;;;;;;30.42;28.35;;;31.60;61.40;;;;;;5006794;28;20224;-75
2022/06/16 10:27:21;;;;;;;37.67;35.40;;;32.20;61.40;;;;;;4998260;28;20675;-73
2022/06/16 10:29:56;;;;;;;42.28;39.83;;;32.30;62.00;;;;;;4993916;28;20201;-73
2022/06/16 10:32:39;;;;;;;62.20;58.53;;;32.40;62.60;;;;;;4992857;28;20183;-72
2022/06/16 10:35:06;;;;;;;26.35;24.60;;;32.70;61.40;;;;;;4991832;28;20199;-73
2022/06/16 10:37:33;;;;;;;29.92;28.30;;;32.40;60.70;;;;;;4992547;28;20188;-78
2022/06/16 10:40:13;;;;;;;25.42;23.98;;;32.40;62.10;;;;;;5026370;22;20322;-77
2022/06/16 10:42:50;;;;;;;28.05;26.35;;;32.50;61.30;;;;;;5015662;28;20266;-77
2022/06/16 10:45:31;;;;;;;25.02;23.13;;;32.70;62.40;;;;;;5016576;28;20191;-80
2022/06/16 10:48:01;;;;;;;25.80;24.17;;;33.10;61.50;;;;;;5013812;28;20226;-80
2022/06/16 10:50:37;;;;;;;28.42;26.60;;;33.10;61.50;;;;;;5022986;28;20206;-77
2022/06/16 10:53:28;;;;;;;26.58;24.73;;;32.80;60.00;;;;;;5025726;28;20193;-77
2022/06/16 10:56:10;;;;;;;40.83;38.63;;;33.10;60.30;;;;;;5033887;28;20256;-76
2022/06/16 10:59:05;;;;;;;48.28;45.85;;;33.00;57.50;;;;;;5031334;28;20674;-77
2022/06/16 11:01:36;;;;;;;43.13;40.67;;;33.00;58.10;;;;;;5028297;28;20195;-78
2022/06/16 11:04:17;;;;;;;57.15;54.30;;;33.10;58.10;;;;;;5030329;28;20237;-74
2022/06/16 11:06:52;;;;;;;37.13;35.00;;;32.90;57.60;;;;;;5031215;28;20785;-76
2022/06/16 11:09:28;;;;;;;23.58;22.15;;;32.80;59.20;;;;;;5031230;28;20637;-76
2022/06/16 11:12:12;;;;;;;18.52;16.90;;;32.50;60.10;;;;;;5030243;28;20225;-77
2022/06/16 11:14:53;;;;;;;18.58;17.27;;;32.50;60.80;;;;;;5031305;28;20187;-76
2022/06/16 11:17:27;;;;;;;20.10;18.85;;;32.70;60.40;;;;;;5030351;28;20191;-77
2022/06/16 11:20:01;;;;;;;18.30;17.13;;;32.50;60.00;;;;;;5031258;28;20210;-73
2022/06/16 11:22:39;;;;;;;19.02;17.92;;;32.60;59.90;;;;;;5031251;28;20550;-75
2022/06/16 11:25:30;;;;;;;25.40;23.90;;;32.40;60.60;;;;;;5030954;28;20183;-77
2022/06/16 11:27:59;;;;;;;21.08;19.73;;;32.30;60.80;;;;;;5030188;28;20229;-75
2022/06/16 11:30:34;;;;;;;22.27;20.55;;;33.00;61.00;;;;;;5031005;28;20282;-76
2022/06/16 11:33:01;;;;;;;46.20;43.67;;;33.40;58.60;;;;;;5030981;28;20253;-77
2022/06/16 11:35:50;;;;;;;46.53;43.97;;;33.40;57.60;;;;;;5030822;28;20206;-75
2022/06/16 11:38:20;;;;;;;64.45;60.75;;;33.50;58.10;;;;;;5029961;28;20613;-77
2022/06/16 11:40:59;;;;;;;55.45;52.42;;;33.50;57.70;;;;;;5030757;28;20225;-76
2022/06/16 11:43:42;;;;;;;56.95;54.10;;;33.50;58.50;;;;;;5030234;28;20206;-80
2022/06/16 11:46:45;;;;;;;42.58;40.28;;;33.10;58.40;;;;;;5030921;28;20225;-75
2022/06/16 11:49:23;;;;;;;76.30;72.40;;;33.50;58.70;;;;;;5010906;28;20207;-77
2022/06/16 11:51:54;;;;;;;83.05;78.85;;;33.50;57.10;;;;;;5031369;28;20620;-77
2022/06/16 11:54:47;;;;;;;80.13;76.15;;;33.00;57.20;;;;;;5030814;28;20551;-77
2022/06/16 11:57:34;;;;;;;87.95;83.72;;;33.20;56.70;;;;;;5029886;28;20655;-77
2022/06/16 12:00:13;;;;;;;94.82;90.22;;;33.70;55.50;;;;;;5031355;28;20202;-77
2022/06/16 12:02:41;;;;;;;89.30;84.53;;;33.60;55.70;;;;;;5028916;28;20187;-78
2022/06/16 12:05:47;;;;;;;125.57;119.40;;;33.40;56.40;;;;;;5034538;28;20186;-81
2022/06/16 12:08:43;;;;;;;143.00;135.93;;;33.40;54.40;;;;;;5027488;28;20188;-78
2022/06/16 12:11:12;;;;;;;135.82;129.27;;;33.10;54.00;;;;;;5019352;28;20556;-79
2022/06/16 12:14:16;;;;;;;137.70;130.35;;;33.20;54.20;;;;;;5032854;28;20179;-76
2022/06/16 12:17:35;;;;;;;146.98;139.68;;;33.70;54.50;;;;;;5024396;28;20217;-76
2022/06/16 12:20:19;;;;;;;147.65;140.50;;;33.80;52.70;;;;;;5009407;28;20231;-79
2022/06/16 12:22:58;;;;;;;157.65;149.98;;;34.00;53.20;;;;;;5036365;28;20217;-79
2022/06/16 12:25:34;;;;;;;195.95;186.32;;;34.50;52.30;;;;;;5033000;28;20552;-78
2022/06/16 12:28:19;;;;;;;179.68;170.88;;;33.90;51.80;;;;;;5033244;28;20179;-76
2022/06/16 12:30:53;;;;;;;163.68;155.35;;;33.70;51.80;;;;;;5030921;28;20199;-76
2022/06/16 12:33:40;;;;;;;188.82;178.63;;;33.70;52.70;;;;;;5034710;28;20190;-78
2022/06/16 12:36:11;;;;;;;190.10;180.48;;;34.40;52.60;;;;;;5037420;28;20190;-76
2022/06/16 12:38:46;;;;;;;260.73;246.95;;;34.80;52.40;;;;;;5035547;28;20827;-77
2022/06/16 12:41:20;;;;;;;220.48;209.25;;;34.30;52.80;;;;;;5033834;28;20301;-76
2022/06/16 12:43:56;;;;;;;271.42;257.63;;;34.20;51.20;;;;;;5035139;28;20199;-83
2022/06/16 12:46:31;;;;;;;243.30;230.23;;;34.20;52.30;;;;;;5035736;28;20233;-79
2022/06/16 12:49:22;;;;;;;208.02;197.93;;;34.90;51.70;;;;;;5041606;28;20182;-82
2022/06/16 12:51:53;;;;;;;175.60;167.02;;;35.20;50.40;;;;;;5034190;28;20644;-79
2022/06/16 12:54:24;;;;;;;144.82;137.32;;;34.90;49.70;;;;;;5035761;28;20190;-80
2022/06/16 12:56:55;;;;;;;138.52;131.60;;;34.70;49.60;;;;;;5038464;28;20179;-77
2022/06/16 12:59:31;;;;;;;105.50;100.20;;;34.80;49.00;;;;;;5043510;28;20214;-81
2022/06/16 13:02:00;;;;;;;168.68;160.55;;;34.40;49.00;;;;;;5037792;28;20187;-77
2022/06/16 13:04:29;;;;;;;103.43;98.35;;;34.90;49.60;;;;;;5037469;28;20203;-77
2022/06/16 13:06:58;;;;;;;104.32;99.25;;;35.20;48.00;;;;;;5031667;28;20175;-76
2022/06/16 13:09:24;;;;;;;103.30;98.38;;;34.90;47.40;;;;;;5033128;28;20204;-76
2022/06/16 13:12:02;;;;;;;103.57;98.60;;;34.90;48.20;;;;;;5035610;28;20183;-84